Time;durP1;ratioP1;P1;durP2;ratioP2;P2;SDS_P1;SDS_P2;PMS_P1;PMS_P2;Temp;Humidity;BMP_temperature;BMP_pressure;BME280_temperature;BME280_humidity;BME280_pressure;Samples;Min_cycle;Max_cycle;Signal;HPM_P1;HPM_P2
2021/05/30 00:00:35;;;;;;;;;;;;;;;8.41;100.00;100494.13;4992852;28;19936;-75
2021/05/30 00:03:03;;;;;;;;;;;;;;;8.42;100.00;100481.03;4992784;28;19944;-74
2021/05/30 00:05:30;;;;;;;;;;;;;;;8.47;100.00;100483.47;4992067;28;19981;-75
2021/05/30 00:07:58;;;;;;;;;;;;;;;8.48;100.00;100480.31;4992345;28;19926;-75
2021/05/30 00:10:26;;;;;;;;;;;;;;;8.42;100.00;100481.81;4993008;28;20347;-75
2021/05/30 00:12:53;;;;;;;;;;;;;;;8.30;100.00;100476.44;4996515;28;19925;-75
2021/05/30 00:15:21;;;;;;;;;;;;;;;8.34;100.00;100485.69;4996559;28;19925;-74
2021/05/30 00:17:48;;;;;;;;;;;;;;;8.35;100.00;100487.28;5012098;28;20024;-75
2021/05/30 00:20:16;;;;;;;;;;;;;;;8.32;100.00;100490.81;4996291;28;19952;-75
2021/05/30 00:22:44;;;;;;;;;;;;;;;8.27;100.00;100490.34;5011633;28;20020;-75
2021/05/30 00:25:11;;;;;;;;;;;;;;;8.13;100.00;100490.88;5011561;28;19926;-74
2021/05/30 00:27:38;;;;;;;;;;;;;;;8.01;100.00;100498.63;4995430;28;20020;-74
2021/05/30 00:30:06;;;;;;;;;;;;;;;8.06;100.00;100481.59;5011300;28;19936;-75
2021/05/30 00:32:34;;;;;;;;;;;;;;;8.10;100.00;100519.47;4996521;28;20393;-75
2021/05/30 00:35:01;;;;;;;;;;;;;;;8.11;100.00;100521.06;4995751;28;20388;-73
2021/05/30 00:37:28;;;;;;;;;;;;;;;8.02;100.00;100528.06;4996525;28;19932;-74
2021/05/30 00:39:56;;;;;;;;;;;;;;;7.84;100.00;100533.31;4996827;28;19932;-74
2021/05/30 00:42:23;;;;;;;;;;;;;;;7.85;100.00;100531.31;4991740;28;20370;-75
2021/05/30 00:44:51;;;;;;;;;;;;;;;7.85;100.00;100534.94;4987404;28;19933;-75
2021/05/30 00:47:18;;;;;;;;;;;;;;;7.75;100.00;100529.97;4996751;28;19930;-74
2021/05/30 00:49:45;;;;;;;;;;;;;;;7.83;100.00;100533.69;4995980;28;20031;-75
2021/05/30 00:52:12;;;;;;;;;;;;;;;7.74;100.00;100539.47;5011750;28;20412;-74
2021/05/30 00:54:40;;;;;;;;;;;;;;;7.81;100.00;100530.47;4995263;28;20308;-75
2021/05/30 00:57:08;;;;;;;;;;;;;;;7.86;100.00;100533.75;4995034;28;19976;-75
2021/05/30 00:59:35;;;;;;;;;;;;;;;7.68;100.00;100532.63;4996109;28;19925;-74
2021/05/30 01:02:03;;;;;;;;;;;;;;;7.48;100.00;100527.47;4994350;28;19942;-75
2021/05/30 01:04:30;;;;;;;;;;;;;;;7.44;100.00;100532.94;4992262;28;20297;-74
2021/05/30 01:06:58;;;;;;;;;;;;;;;7.46;100.00;100530.59;4996275;28;19972;-74
2021/05/30 01:09:26;;;;;;;;;;;;;;;7.41;100.00;100525.34;4995737;28;20283;-75
2021/05/30 01:11:54;;;;;;;;;;;;;;;7.38;100.00;100529.66;4995657;28;19926;-75
2021/05/30 01:14:21;;;;;;;;;;;;;;;7.34;100.00;100536.31;5010289;28;19932;-75
2021/05/30 01:16:49;;;;;;;;;;;;;;;7.29;100.00;100531.06;4995939;28;19980;-75
2021/05/30 01:19:17;;;;;;;;;;;;;;;7.29;100.00;100534.66;4994388;28;19926;-75
2021/05/30 01:21:45;;;;;;;;;;;;;;;7.21;100.00;100537.63;4995756;28;19934;-75
2021/05/30 01:24:13;;;;;;;;;;;;;;;7.15;100.00;100539.09;5025715;28;20021;-75
2021/05/30 01:26:41;;;;;;;;;;;;;;;7.05;100.00;100542.47;4993877;28;19926;-75
2021/05/30 01:29:08;;;;;;;;;;;;;;;7.10;100.00;100542.19;4994010;28;19925;-75
2021/05/30 01:31:35;;;;;;;;;;;;;;;7.15;100.00;100547.44;5026651;28;20068;-75
2021/05/30 01:34:03;;;;;;;;;;;;;;;7.11;100.00;100549.34;4991040;28;19937;-75
2021/05/30 01:36:30;;;;;;;;;;;;;;;7.03;100.00;100553.13;4994176;28;19926;-75
2021/05/30 01:38:58;;;;;;;;;;;;;;;7.01;100.00;100549.94;4994845;28;19960;-74
2021/05/30 01:41:25;;;;;;;;;;;;;;;7.02;100.00;100551.53;4994415;28;19930;-74
2021/05/30 01:43:52;;;;;;;;;;;;;;;7.11;100.00;100549.34;4995114;28;20020;-74
2021/05/30 01:46:19;;;;;;;;;;;;;;;7.10;100.00;100556.09;4995198;28;19932;-75
2021/05/30 01:48:46;;;;;;;;;;;;;;;7.09;100.00;100552.50;4991779;28;20296;-75
2021/05/30 01:51:13;;;;;;;;;;;;;;;6.94;100.00;100560.88;4995114;28;19995;-75
2021/05/30 01:58:34;;;;;;;;;;;;;;;6.63;100.00;100572.06;5026650;28;20336;-75
2021/05/30 02:01:02;;;;;;;;;;;;;;;6.58;100.00;100562.06;4973760;28;20001;-75
2021/05/30 02:03:29;;;;;;;;;;;;;;;6.58;100.00;100558.47;5016292;28;20330;-75
2021/05/30 02:05:58;;;;;;;;;;;;;;;6.48;100.00;100564.59;4994558;28;20376;-75
2021/05/30 02:08:25;;;;;;;;;;;;;;;6.52;100.00;100568.25;5010125;28;20375;-75
2021/05/30 02:10:53;;;;;;;;;;;;;;;6.46;100.00;100547.47;5009410;28;20431;-75
2021/05/30 02:13:21;;;;;;;;;;;;;;;6.60;100.00;100556.13;4994524;28;19957;-74
2021/05/30 02:15:48;;;;;;;;;;;;;;;6.56;100.00;100563.56;4994539;28;20404;-75
2021/05/30 02:18:15;;;;;;;;;;;;;;;6.49;100.00;100560.63;4994500;28;20333;-75
2021/05/30 02:20:43;;;;;;;;;;;;;;;6.30;100.00;100561.34;4993075;28;20381;-75
2021/05/30 02:23:11;;;;;;;;;;;;;;;6.18;100.00;100563.44;4994438;28;19932;-75
2021/05/30 02:25:39;;;;;;;;;;;;;;;6.23;100.00;100563.16;4993910;28;19930;-75
2021/05/30 02:28:09;;;;;;;;;;;;;;;6.27;100.00;100564.06;5025521;28;20024;-75
2021/05/30 02:30:37;;;;;;;;;;;;;;;6.27;100.00;100559.28;4994331;28;19933;-75
2021/05/30 02:33:04;;;;;;;;;;;;;;;6.26;100.00;100556.88;4993020;28;19925;-75
2021/05/30 02:35:31;;;;;;;;;;;;;;;6.30;100.00;100558.56;5009134;28;19926;-75
2021/05/30 02:37:59;;;;;;;;;;;;;;;6.42;100.00;100588.22;4994231;28;19972;-75
2021/05/30 02:40:26;;;;;;;;;;;;;;;6.40;100.00;100601.66;4993721;28;20628;-74
2021/05/30 02:42:53;;;;;;;;;;;;;;;6.24;100.00;100614.75;4994097;28;19936;-74
2021/05/30 02:45:20;;;;;;;;;;;;;;;6.18;100.00;100611.41;4992341;28;19930;-75
2021/05/30 02:47:47;;;;;;;;;;;;;;;6.12;100.00;100612.06;4992556;28;19932;-75
2021/05/30 02:50:15;;;;;;;;;;;;;;;6.07;100.00;100618.69;4994008;28;19926;-75
2021/05/30 02:52:42;;;;;;;;;;;;;;;6.02;100.00;100615.34;4994020;28;20108;-75
2021/05/30 02:55:10;;;;;;;;;;;;;;;6.00;100.00;100618.47;4994337;28;20380;-75
2021/05/30 02:57:37;;;;;;;;;;;;;;;5.95;100.00;100624.28;4993595;28;19926;-75
2021/05/30 03:00:06;;;;;;;;;;;;;;;5.92;100.00;100619.47;4993642;28;19925;-75
2021/05/30 03:02:33;;;;;;;;;;;;;;;5.70;100.00;100616.41;4991990;28;19941;-75
2021/05/30 03:05:00;;;;;;;;;;;;;;;5.76;100.00;100609.44;4993881;28;19984;-74
2021/05/30 03:07:27;;;;;;;;;;;;;;;5.84;100.00;100623.19;4993302;28;19932;-75
2021/05/30 03:09:55;;;;;;;;;;;;;;;5.87;100.00;100622.47;5007488;28;20377;-75
2021/05/30 03:12:22;;;;;;;;;;;;;;;5.86;100.00;100620.06;5008147;28;19933;-75
2021/05/30 03:14:49;;;;;;;;;;;;;;;5.75;100.00;100618.94;4993293;28;19925;-74
2021/05/30 03:17:16;;;;;;;;;;;;;;;5.68;100.00;100613.19;4992531;28;19933;-75
2021/05/30 03:19:43;;;;;;;;;;;;;;;5.70;100.00;100617.22;4993360;28;19929;-75
2021/05/30 03:22:10;;;;;;;;;;;;;;;5.74;100.00;100617.31;4992486;28;19926;-75
2021/05/30 03:24:38;;;;;;;;;;;;;;;5.63;100.00;100617.81;5024771;28;19926;-75
2021/05/30 03:27:05;;;;;;;;;;;;;;;5.58;100.00;100608.94;4992350;28;19930;-75
2021/05/30 03:29:32;;;;;;;;;;;;;;;5.57;100.00;100618.44;4993755;28;19976;-75
2021/05/30 03:31:59;;;;;;;;;;;;;;;5.62;100.00;100618.16;4992134;28;19925;-75
2021/05/30 03:34:26;;;;;;;;;;;;;;;5.59;100.00;100618.88;5008417;28;20451;-75
2021/05/30 03:36:56;;;;;;;;;;;;;;;5.68;100.00;100610.41;4993252;28;19929;-75
2021/05/30 03:39:25;;;;;;;;;;;;;;;5.64;100.00;100613.09;4992988;28;20300;-75
2021/05/30 03:41:55;;;;;;;;;;;;;;;5.48;100.00;100612.25;5022299;28;19968;-75
2021/05/30 03:44:23;;;;;;;;;;;;;;;5.46;100.00;100618.13;4993304;28;20321;-75
2021/05/30 03:46:50;;;;;;;;;;;;;;;5.48;100.00;100618.56;4992727;28;20380;-75
2021/05/30 03:49:17;;;;;;;;;;;;;;;5.45;100.00;100605.41;4993287;28;19925;-75
2021/05/30 03:51:45;;;;;;;;;;;;;;;5.51;100.00;100611.53;4993237;28;19949;-75
2021/05/30 03:54:13;;;;;;;;;;;;;;;5.51;100.00;100609.53;4993088;28;20030;-75
2021/05/30 03:56:40;;;;;;;;;;;;;;;5.41;100.00;100603.69;4991930;28;19930;-75
2021/05/30 03:59:07;;;;;;;;;;;;;;;5.41;100.00;100603.69;4991845;28;19933;-75
2021/05/30 04:01:37;;;;;;;;;;;;;;;5.39;100.00;100608.81;4993034;28;19926;-75
2021/05/30 04:04:04;;;;;;;;;;;;;;;5.37;100.00;100611.94;4990899;28;19929;-75
2021/05/30 04:06:31;;;;;;;;;;;;;;;5.44;100.00;100614.91;4992769;28;19930;-75
2021/05/30 04:08:59;;;;;;;;;;;;;;;5.43;100.00;100612.47;4991154;28;20044;-75
2021/05/30 04:11:26;;;;;;;;;;;;;;;5.34;100.00;100615.41;5024690;28;19933;-75
2021/05/30 04:13:53;;;;;;;;;;;;;;;5.31;100.00;100620.84;4993062;28;19942;-75
2021/05/30 04:16:20;;;;;;;;;;;;;;;5.27;100.00;100620.72;4992576;28;19926;-74
2021/05/30 04:18:48;;;;;;;;;;;;;;;5.29;100.00;100614.81;4992813;28;19929;-75
2021/05/30 04:21:15;;;;;;;;;;;;;;;5.42;100.00;100617.22;5023672;28;19933;-75
2021/05/30 04:23:42;;;;;;;;;;;;;;;5.37;100.00;100614.69;4992971;28;19929;-75
2021/05/30 04:26:09;;;;;;;;;;;;;;;5.34;100.00;100609.03;4992782;28;19932;-75
2021/05/30 04:28:37;;;;;;;;;;;;;;;5.41;100.00;100610.06;4993014;28;19933;-75
2021/05/30 04:31:05;;;;;;;;;;;;;;;5.47;100.00;100611.41;4992451;28;19969;-75
2021/05/30 04:33:32;;;;;;;;;;;;;;;5.56;100.00;100606.53;4991400;28;19973;-75
2021/05/30 04:36:00;;;;;;;;;;;;;;;5.59;100.00;100611.38;4992326;28;19938;-75
2021/05/30 04:38:27;;;;;;;;;;;;;;;5.69;100.00;100612.03;4992903;28;19926;-75
2021/05/30 04:41:00;;;;;;;;;;;;;;;5.80;100.00;100611.13;4992630;28;19930;-75
2021/05/30 04:43:27;;;;;;;;;;;;;;;5.89;100.00;100617.41;4992466;28;19930;-75
2021/05/30 04:45:54;;;;;;;;;;;;;;;5.97;100.00;100604.53;4992598;28;19936;-75
2021/05/30 04:48:21;;;;;;;;;;;;;;;5.83;100.00;100612.44;4992680;28;20420;-75
2021/05/30 04:51:09;;;;;;;;;;;;;;;5.66;100.00;100608.00;5023819;28;20020;-75
2021/05/30 04:53:36;;;;;;;;;;;;;;;5.62;100.00;100609.06;5023676;28;19941;-75
2021/05/30 04:56:04;;;;;;;;;;;;;;;5.70;100.00;100608.06;4992663;28;19925;-75
2021/05/30 04:58:32;;;;;;;;;;;;;;;5.80;100.00;100615.91;5026581;28;19925;-75
2021/05/30 05:01:00;;;;;;;;;;;;;;;5.96;100.00;100616.75;4994333;28;19934;-75
2021/05/30 05:03:28;;;;;;;;;;;;;;;6.12;100.00;100612.06;4996000;28;19933;-75
2021/05/30 05:05:55;;;;;;;;;;;;;;;6.31;100.00;100620.47;4995531;28;20024;-75
2021/05/30 05:08:22;;;;;;;;;;;;;;;6.45;100.00;100620.84;4995632;28;19925;-75
2021/05/30 05:10:50;;;;;;;;;;;;;;;6.47;100.00;100607.38;4995833;28;19926;-75
2021/05/30 05:13:18;;;;;;;;;;;;;;;6.46;100.00;100622.44;4996054;28;19969;-75
2021/05/30 05:15:45;;;;;;;;;;;;;;;6.57;100.00;100613.19;5027057;28;20017;-75
2021/05/30 05:18:17;;;;;;;;;;;;;;;6.61;100.00;100618.84;4994433;28;19926;-75
2021/05/30 05:20:44;;;;;;;;;;;;;;;6.75;100.00;100625.56;4995635;28;19989;-75
2021/05/30 05:23:12;;;;;;;;;;;;;;;6.88;100.00;100618.72;4995639;28;20020;-75
2021/05/30 05:25:39;;;;;;;;;;;;;;;6.93;100.00;100620.41;4995786;28;19933;-75
2021/05/30 05:28:07;;;;;;;;;;;;;;;7.09;100.00;100623.94;4995488;28;19926;-75
2021/05/30 05:30:35;;;;;;;;;;;;;;;7.16;100.00;100621.34;4994340;28;19996;-75
2021/05/30 05:33:02;;;;;;;;;;;;;;;7.37;100.00;100621.81;4994914;28;19926;-75
2021/05/30 05:35:30;;;;;;;;;;;;;;;7.57;100.00;100623.44;4995085;28;20024;-75
2021/05/30 05:37:57;;;;;;;;;;;;;;;7.99;100.00;100629.00;4991061;28;19988;-75
2021/05/30 05:40:26;;;;;;;;;;;;;;;8.73;100.00;100623.63;4995295;28;19930;-75
2021/05/30 05:42:54;;;;;;;;;;;;;;;10.13;100.00;100627.47;4995711;28;19949;-75
2021/05/30 05:45:25;;;;;;;;;;;;;;;11.76;100.00;100633.91;4995067;28;20042;-75
2021/05/30 05:47:53;;;;;;;;;;;;;;;13.48;100.00;100622.03;4994871;28;19933;-75
2021/05/30 05:50:21;;;;;;;;;;;;;;;14.64;100.00;100601.72;4993808;28;19929;-75
2021/05/30 05:52:48;;;;;;;;;;;;;;;14.97;100.00;100559.59;4993934;28;20021;-75
2021/05/30 05:55:16;;;;;;;;;;;;;;;15.03;100.00;100518.50;4993988;28;19985;-75
2021/05/30 05:57:47;;;;;;;;;;;;;;;14.63;100.00;100488.38;4995311;28;19953;-75
2021/05/30 06:00:16;;;;;;;;;;;;;;;14.94;100.00;100461.94;5009028;28;19937;-75
2021/05/30 06:02:45;;;;;;;;;;;;;;;15.65;100.00;100448.53;5010150;28;19925;-76
2021/05/30 06:05:16;;;;;;;;;;;;;;;15.91;100.00;100413.91;4993337;28;19925;-76
2021/05/30 06:07:44;;;;;;;;;;;;;;;16.50;100.00;100396.38;5021759;28;19926;-75
2021/05/30 06:10:12;;;;;;;;;;;;;;;16.43;100.00;100390.84;5025804;28;20391;-76
2021/05/30 06:12:39;;;;;;;;;;;;;;;16.79;100.00;100374.84;4994575;28;19925;-76
2021/05/30 06:15:07;;;;;;;;;;;;;;;17.32;100.00;100360.38;4994624;28;19926;-76
2021/05/30 06:17:34;;;;;;;;;;;;;;;17.15;100.00;100338.97;4990350;28;19930;-76
2021/05/30 06:20:02;;;;;;;;;;;;;;;17.22;100.00;100341.66;4994454;28;19933;-76
2021/05/30 06:22:30;;;;;;;;;;;;;;;17.39;100.00;100321.47;5026210;28;19926;-76
2021/05/30 06:24:57;;;;;;;;;;;;;;;17.58;100.00;100309.31;4992958;28;20012;-76
2021/05/30 06:27:26;;;;;;;;;;;;;;;16.42;100.00;100299.00;4993725;28;20359;-76
2021/05/30 06:29:53;;;;;;;;;;;;;;;17.01;100.00;100296.97;5023687;28;19926;-76
2021/05/30 06:32:20;;;;;;;;;;;;;;;17.12;100.00;100280.53;4995162;28;19926;-76
2021/05/30 06:34:47;;;;;;;;;;;;;;;17.25;100.00;100282.25;5025280;28;19926;-76
2021/05/30 06:37:14;;;;;;;;;;;;;;;17.07;100.00;100278.25;4992842;28;19926;-76
2021/05/30 06:39:41;;;;;;;;;;;;;;;17.45;100.00;100277.34;4993500;28;20366;-76
2021/05/30 06:42:08;;;;;;;;;;;;;;;18.14;100.00;100278.78;4994157;28;19933;-76
2021/05/30 06:44:35;;;;;;;;;;;;;;;19.31;100.00;100271.28;4994000;28;19956;-76
2021/05/30 06:47:03;;;;;;;;;;;;;;;20.08;100.00;100279.97;4993602;28;19933;-77
2021/05/30 06:49:31;;;;;;;;;;;;;;;20.90;100.00;100284.25;4992889;28;20278;-77
2021/05/30 06:51:58;;;;;;;;;;;;;;;21.73;100.00;100282.09;4993915;28;20436;-77
2021/05/30 06:54:25;;;;;;;;;;;;;;;22.26;100.00;100288.38;4993689;28;20432;-76
2021/05/30 06:56:52;;;;;;;;;;;;;;;21.53;100.00;100290.25;4993787;28;19930;-76
2021/05/30 06:59:19;;;;;;;;;;;;;;;20.98;100.00;100296.94;4993556;28;19941;-76
2021/05/30 07:01:46;;;;;;;;;;;;;;;19.95;100.00;100289.78;4993185;28;19926;-76
2021/05/30 07:04:13;;;;;;;;;;;;;;;21.25;100.00;100285.69;4989079;28;20333;-76
2021/05/30 07:06:40;;;;;;;;;;;;;;;22.36;100.00;100293.59;4986217;28;19926;-76
2021/05/30 07:09:08;;;;;;;;;;;;;;;22.49;100.00;100290.59;5008468;28;20296;-76
2021/05/30 07:11:35;;;;;;;;;;;;;;;22.35;100.00;100292.00;5004328;28;20479;-76
2021/05/30 07:14:02;;;;;;;;;;;;;;;23.03;100.00;100287.66;4989848;28;19926;-76
2021/05/30 07:16:30;;;;;;;;;;;;;;;23.93;100.00;100286.50;4998434;28;19948;-77
2021/05/30 07:18:57;;;;;;;;;;;;;;;23.87;100.00;100285.56;5025127;28;20442;-76
2021/05/30 07:21:24;;;;;;;;;;;;;;;23.86;100.00;100278.28;4991186;28;20404;-76
2021/05/30 07:23:51;;;;;;;;;;;;;;;23.94;100.00;100276.63;4993416;28;20448;-78
2021/05/30 07:26:18;;;;;;;;;;;;;;;23.78;100.00;100266.44;4992425;28;19937;-76
2021/05/30 07:28:45;;;;;;;;;;;;;;;23.95;100.00;100278.22;4992883;28;19930;-76
2021/05/30 07:31:14;;;;;;;;;;;;;;;23.75;100.00;100269.47;4975722;28;19930;-76
2021/05/30 07:33:41;;;;;;;;;;;;;;;23.52;100.00;100271.03;4992149;28;19973;-76
2021/05/30 07:36:08;;;;;;;;;;;;;;;22.85;100.00;100279.16;4992360;28;20288;-76
2021/05/30 07:38:36;;;;;;;;;;;;;;;23.69;100.00;100268.56;4992843;28;19930;-76
2021/05/30 07:41:03;;;;;;;;;;;;;;;23.53;100.00;100269.75;5021153;28;20293;-76
2021/05/30 07:43:30;;;;;;;;;;;;;;;23.35;100.00;100267.00;4990460;28;19992;-76
2021/05/30 07:45:58;;;;;;;;;;;;;;;21.79;100.00;100273.75;4993162;28;19926;-76
2021/05/30 07:48:25;;;;;;;;;;;;;;;21.54;100.00;100277.59;4993010;28;20029;-76
2021/05/30 07:50:52;;;;;;;;;;;;;;;22.20;100.00;100279.66;4992704;28;19930;-76
2021/05/30 07:53:20;;;;;;;;;;;;;;;23.06;100.00;100273.25;4991309;28;19932;-76
2021/05/30 07:55:47;;;;;;;;;;;;;;;22.75;100.00;100271.91;4988626;28;20340;-76
2021/05/30 07:58:15;;;;;;;;;;;;;;;22.59;100.00;100278.72;4985859;28;20285;-76
2021/05/30 08:00:43;;;;;;;;;;;;;;;21.72;100.00;100271.19;4992825;28;19936;-76
2021/05/30 08:03:10;;;;;;;;;;;;;;;21.27;100.00;100274.66;4992527;28;19925;-76
2021/05/30 08:05:37;;;;;;;;;;;;;;;21.95;100.00;100274.25;4992286;28;19933;-76
2021/05/30 08:08:04;;;;;;;;;;;;;;;21.88;100.00;100266.03;4992598;28;19925;-75
2021/05/30 08:10:31;;;;;;;;;;;;;;;22.12;100.00;100275.53;4992594;28;20432;-75
2021/05/30 08:12:58;;;;;;;;;;;;;;;21.40;100.00;100266.84;4992230;28;19929;-75
2021/05/30 08:15:25;;;;;;;;;;;;;;;21.63;100.00;100265.47;4992227;28;19930;-75
2021/05/30 08:17:53;;;;;;;;;;;;;;;21.08;100.00;100258.81;4990866;28;19930;-76
2021/05/30 08:20:22;;;;;;;;;;;;;;;21.64;100.00;100256.47;5023957;28;20296;-76
2021/05/30 08:22:49;;;;;;;;;;;;;;;22.87;100.00;100266.00;5007514;28;19980;-76
2021/05/30 08:25:17;;;;;;;;;;;;;;;23.41;100.00;100250.78;4991097;28;19989;-76
2021/05/30 08:27:45;;;;;;;;;;;;;;;22.97;100.00;100243.97;4988710;28;19968;-76
2021/05/30 08:30:12;;;;;;;;;;;;;;;23.25;100.00;100262.56;4992261;28;20008;-76
2021/05/30 08:32:40;;;;;;;;;;;;;;;21.53;100.00;100241.91;4992602;28;19932;-76
2021/05/30 08:35:07;;;;;;;;;;;;;;;19.91;100.00;100257.88;5026734;28;20419;-75
2021/05/30 08:37:35;;;;;;;;;;;;;;;20.91;100.00;100268.78;4993922;28;20056;-75
2021/05/30 08:40:03;;;;;;;;;;;;;;;21.59;100.00;100259.13;5024469;28;20301;-75
2021/05/30 08:42:30;;;;;;;;;;;;;;;21.73;100.00;100267.88;4994608;28;19925;-74
2021/05/30 08:44:58;;;;;;;;;;;;;;;21.58;100.00;100264.06;5026191;28;19964;-74
2021/05/30 08:47:25;;;;;;;;;;;;;;;20.52;100.00;100264.56;4995276;28;19933;-75
2021/05/30 08:49:52;;;;;;;;;;;;;;;20.97;100.00;100262.06;4994878;28;19926;-74
2021/05/30 08:52:19;;;;;;;;;;;;;;;21.67;100.00;100258.38;4994184;28;19951;-75
2021/05/30 08:54:47;;;;;;;;;;;;;;;21.45;100.00;100273.97;4995380;28;20020;-75
2021/05/30 08:57:14;;;;;;;;;;;;;;;22.19;100.00;100269.53;4995035;28;19926;-76
2021/05/30 08:59:51;;;;;;;;;;;;;;;21.79;100.00;100266.03;4995339;28;19926;-75
2021/05/30 09:02:18;;;;;;;;;;;;;;;21.02;100.00;100269.19;4994121;28;19954;-75
2021/05/30 09:04:53;;;;;;;;;;;;;;;20.17;100.00;100276.44;4995665;28;19926;-75
2021/05/30 09:07:36;;;;;;;;;;;;;;;20.38;100.00;100279.31;5010530;28;19956;-75
2021/05/30 09:10:04;;;;;;;;;;;;;;;20.68;100.00;100277.78;5027022;28;19926;-75
2021/05/30 09:12:43;;;;;;;;;;;;;;;20.69;100.00;100279.38;4986166;28;19988;-75
2021/05/30 09:15:51;;;;;;;;;;;;;;;20.19;100.00;100276.78;4993757;28;20359;-75
2021/05/30 09:18:18;;;;;;;;;;;;;;;19.77;100.00;100278.22;4982402;28;19929;-75
2021/05/30 09:20:52;;;;;;;;;;;;;;;19.18;100.00;100284.59;5027133;28;19976;-75
2021/05/30 09:23:33;;;;;;;;;;;;;;;19.79;100.00;100289.91;4995427;28;20332;-75
2021/05/30 09:26:10;;;;;;;;;;;;;;;19.78;100.00;100294.78;5026326;28;19926;-76
2021/05/30 09:28:39;;;;;;;;;;;;;;;19.87;100.00;100277.09;4995392;28;19980;-76
2021/05/30 09:31:06;;;;;;;;;;;;;;;19.16;100.00;100287.88;4995284;28;19936;-75
2021/05/30 09:33:33;;;;;;;;;;;;;;;18.77;100.00;100293.97;4995187;28;19926;-75
2021/05/30 09:36:03;;;;;;;;;;;;;;;18.13;100.00;100294.16;4993469;28;19984;-76
2021/05/30 09:38:32;;;;;;;;;;;;;;;18.64;100.00;100301.63;4994600;28;20026;-75
2021/05/30 09:41:05;;;;;;;;;;;;;;;18.75;100.00;100296.44;4995080;28;19936;-75
2021/05/30 09:43:36;;;;;;;;;;;;;;;18.90;100.00;100303.25;4992545;28;20019;-75
2021/05/30 09:46:08;;;;;;;;;;;;;;;19.01;100.00;100295.25;5010085;28;19929;-75
2021/05/30 09:48:37;;;;;;;;;;;;;;;19.03;100.00;100289.94;4994382;28;19968;-75
2021/05/30 09:51:23;;;;;;;;;;;;;;;18.46;100.00;100290.03;4994663;28;19926;-75
2021/05/30 09:53:59;;;;;;;;;;;;;;;18.76;100.00;100295.22;5025976;28;19953;-75
2021/05/30 09:56:42;;;;;;;;;;;;;;;18.78;100.00;100283.44;4994956;28;19937;-75
2021/05/30 09:59:16;;;;;;;;;;;;;;;19.00;100.00;100290.84;4981980;28;20394;-75
2021/05/30 10:01:50;;;;;;;;;;;;;;;18.64;100.00;100293.16;4995003;28;19929;-75
2021/05/30 10:04:18;;;;;;;;;;;;;;;18.63;100.00;100291.53;4982176;28;20304;-75
2021/05/30 10:06:45;;;;;;;;;;;;;;;18.27;100.00;100284.47;4993818;28;20500;-75
2021/05/30 10:09:12;;;;;;;;;;;;;;;18.14;100.00;100289.28;5024776;28;19926;-75
2021/05/30 10:11:40;;;;;;;;;;;;;;;18.23;100.00;100286.63;4994368;28;20530;-75
2021/05/30 10:14:08;;;;;;;;;;;;;;;18.06;100.00;100290.72;4994325;28;19972;-75
2021/05/30 10:16:36;;;;;;;;;;;;;;;17.86;100.00;100282.34;4994218;28;19930;-75
2021/05/30 10:19:07;;;;;;;;;;;;;;;17.95;100.00;100282.50;4994706;28;20357;-75
2021/05/30 10:21:40;;;;;;;;;;;;;;;17.80;100.00;100286.97;4994213;28;19932;-75
2021/05/30 10:24:09;;;;;;;;;;;;;;;18.31;100.00;100288.78;4994099;28;19941;-75
2021/05/30 10:26:44;;;;;;;;;;;;;;;18.63;100.00;100277.38;4994422;28;19926;-75
2021/05/30 10:29:13;;;;;;;;;;;;;;;18.45;100.00;100282.00;4993175;28;20027;-75
2021/05/30 10:31:43;;;;;;;;;;;;;;;17.92;100.00;100272.09;5025509;28;20064;-75
2021/05/30 10:34:10;;;;;;;;;;;;;;;18.07;100.00;100275.34;4994097;28;20012;-75
2021/05/30 10:36:39;;;;;;;;;;;;;;;17.46;100.00;100278.16;5008569;28;19973;-74
2021/05/30 10:39:24;;;;;;;;;;;;;;;17.38;100.00;100274.69;4992645;28;19925;-75
2021/05/30 10:42:10;;;;;;;;;;;;;;;17.63;100.00;100285.41;5025460;28;19925;-75
2021/05/30 10:45:07;;;;;;;;;;;;;;;17.16;100.00;100267.16;4993936;28;19932;-75
2021/05/30 10:47:43;;;;;;;;;;;;;;;17.70;100.00;100268.25;4983320;28;20020;-75
2021/05/30 10:50:16;;;;;;;;;;;;;;;17.97;100.00;100268.75;4992070;28;20032;-75
2021/05/30 10:52:48;;;;;;;;;;;;;;;17.86;100.00;100268.22;4993381;28;19976;-75
2021/05/30 10:55:28;;;;;;;;;;;;;;;18.21;100.00;100272.91;4992852;28;20063;-75
2021/05/30 10:57:56;;;;;;;;;;;;;;;17.46;100.00;100272.50;5008596;28;20399;-75
2021/05/30 11:00:26;;;;;;;;;;;;;;;18.01;100.00;100269.44;4991714;28;19954;-75
2021/05/30 11:03:03;;;;;;;;;;;;;;;17.62;100.00;100261.19;4993530;28;19932;-75
2021/05/30 11:05:47;;;;;;;;;;;;;;;17.24;100.00;100271.38;5024994;28;19926;-75
2021/05/30 11:11:15;;;;;;;;;;;;;;;17.91;100.00;100271.31;4993633;28;20304;-75
2021/05/30 11:13:48;;;;;;;;;;;;;;;17.93;100.00;100268.03;4992105;28;19952;-75
2021/05/30 11:16:16;;;;;;;;;;;;;;;18.50;100.00;100276.56;4993284;28;19964;-75
2021/05/30 11:18:44;;;;;;;;;;;;;;;18.15;100.00;100254.09;4993294;28;19929;-75
2021/05/30 11:21:13;;;;;;;;;;;;;;;18.33;100.00;100252.38;4991639;28;20365;-75
2021/05/30 11:23:40;;;;;;;;;;;;;;;18.20;100.00;100247.91;4993169;28;20296;-75
2021/05/30 11:26:09;;;;;;;;;;;;;;;18.42;100.00;100251.75;4992858;28;19929;-75
2021/05/30 11:28:39;;;;;;;;;;;;;;;18.51;100.00;100238.53;4993212;28;19952;-75
2021/05/30 11:31:07;;;;;;;;;;;;;;;18.06;100.00;100225.66;4993152;28;20277;-75
2021/05/30 11:33:45;;;;;;;;;;;;;;;18.20;100.00;100228.91;4992970;28;19930;-75
2021/05/30 11:36:16;;;;;;;;;;;;;;;18.18;100.00;100222.88;5024232;28;19926;-75
2021/05/30 11:38:51;;;;;;;;;;;;;;;18.30;100.00;100230.63;4992982;28;20468;-75
2021/05/30 11:41:21;;;;;;;;;;;;;;;18.02;100.00;100225.78;4992781;28;19930;-76
2021/05/30 11:43:55;;;;;;;;;;;;;;;18.37;100.00;100230.47;4993030;28;19961;-75
2021/05/30 11:46:22;;;;;;;;;;;;;;;18.24;100.00;100221.09;4993095;28;19961;-76
2021/05/30 11:49:05;;;;;;;;;;;;;;;17.83;100.00;100215.38;4991798;28;20409;-75
2021/05/30 11:51:44;;;;;;;;;;;;;;;18.15;100.00;100217.31;4992452;28;19933;-75
2021/05/30 11:54:11;;;;;;;;;;;;;;;18.20;100.00;100209.09;5024619;28;20277;-75
2021/05/30 11:56:39;;;;;;;;;;;;;;;18.34;100.00;100214.38;4992787;28;19932;-75
2021/05/30 11:59:06;;;;;;;;;;;;;;;18.31;100.00;100209.56;4992889;28;19961;-76
2021/05/30 12:01:47;;;;;;;;;;;;;;;18.25;100.00;100199.28;5024037;28;19933;-75
2021/05/30 12:04:23;;;;;;;;;;;;;;;18.36;100.00;100200.53;4979981;28;20057;-75
2021/05/30 12:06:51;;;;;;;;;;;;;;;18.71;100.00;100213.66;4992588;28;19933;-76
2021/05/30 12:09:18;;;;;;;;;;;;;;;18.56;100.00;100211.69;4992205;28;19926;-76
2021/05/30 12:11:46;;;;;;;;;;;;;;;18.51;100.00;100207.38;4989784;28;19933;-76
2021/05/30 12:14:14;;;;;;;;;;;;;;;18.28;100.00;100193.50;4996386;28;19929;-76
2021/05/30 12:16:41;;;;;;;;;;;;;;;18.59;100.00;100197.44;4996477;28;20025;-76
2021/05/30 12:19:08;;;;;;;;;;;;;;;18.22;100.00;100188.84;4996496;28;19930;-76
2021/05/30 12:21:40;;;;;;;;;;;;;;;17.77;100.00;100186.06;5011585;28;19926;-76
2021/05/30 12:24:08;;;;;;;;;;;;;;;18.16;100.00;100196.31;4995470;28;19985;-76
2021/05/30 12:26:36;;;;;;;;;;;;;;;18.25;100.00;100180.25;4996445;28;20429;-76
2021/05/30 12:29:03;;;;;;;;;;;;;;;18.28;100.00;100192.72;4996473;28;19926;-75
2021/05/30 12:31:30;;;;;;;;;;;;;;;18.40;100.00;100180.66;5027685;28;19925;-76
2021/05/30 12:34:01;;;;;;;;;;;;;;;18.15;100.00;100170.03;5027493;28;19976;-76
2021/05/30 12:36:29;;;;;;;;;;;;;;;18.23;100.00;100167.81;5011467;28;20017;-76
2021/05/30 12:39:00;;;;;;;;;;;;;;;18.23;100.00;100176.28;4995153;28;19925;-75
2021/05/30 12:41:31;;;;;;;;;;;;;;;18.35;100.00;100175.53;4996224;28;19930;-76
2021/05/30 12:44:18;;;;;;;;;;;;;;;18.28;100.00;100175.75;4996217;28;19932;-75
2021/05/30 12:46:53;;;;;;;;;;;;;;;18.24;100.00;100169.38;5027242;28;19926;-76